Time;durP1;ratioP1;P1;durP2;ratioP2;P2;SDS_P1;SDS_P2;PMS_P1;PMS_P2;Temp;Humidity;BMP_temperature;BMP_pressure;BME280_temperature;BME280_humidity;BME280_pressure;Samples;Min_cycle;Max_cycle;Signal;HPM_P1;HPM_P2
2022/11/22 00:01:03;;;;;;;76.80;28.70;;;;;;;-1.32;84.36;99806.42;106830;1251;139221;-76
2022/11/22 00:03:28;;;;;;;75.90;27.90;;;;;;;-1.31;84.26;99795.90;106885;1248;97787;-77
2022/11/22 00:05:53;;;;;;;70.40;28.60;;;;;;;-1.30;84.22;99792.56;106796;1233;98225;-77
2022/11/22 00:08:19;;;;;;;72.40;29.10;;;;;;;-1.31;84.30;99792.58;106792;1241;139682;-77
2022/11/22 00:10:46;;;;;;;75.60;28.40;;;;;;;-1.32;84.24;99795.02;106820;1254;97676;-77
2022/11/22 00:13:12;;;;;;;59.10;23.60;;;;;;;-1.31;84.21;99794.14;106783;1253;138668;-77
2022/11/22 00:15:37;;;;;;;64.10;25.40;;;;;;;-1.36;84.03;99797.01;106844;1238;96747;-77
2022/11/22 00:18:02;;;;;;;70.70;27.10;;;;;;;-1.41;84.13;99797.75;106816;1237;97670;-76
2022/11/22 00:20:28;;;;;;;65.90;25.80;;;;;;;-1.43;84.29;99794.96;106681;1244;138996;-77
2022/11/22 00:22:56;;;;;;;66.50;25.10;;;;;;;-1.44;84.28;99792.16;106814;1237;97731;-77
2022/11/22 00:25:21;;;;;;;63.90;24.70;;;;;;;-1.46;84.17;99799.36;106934;1244;138508;-77
2022/11/22 00:27:46;;;;;;;64.80;24.80;;;;;;;-1.47;84.31;99793.94;106833;1241;97678;-77
2022/11/22 00:30:12;;;;;;;63.20;23.70;;;;;;;-1.49;84.37;99786.77;106924;1242;98094;-76
2022/11/22 00:32:37;;;;;;;58.80;21.60;;;;;;;-1.52;84.32;99774.71;106739;1245;138236;-76
2022/11/22 00:35:03;;;;;;;57.60;22.20;;;;;;;-1.57;84.00;99771.95;106907;1241;98074;-76
2022/11/22 00:37:28;;;;;;;57.00;21.70;;;;;;;-1.55;84.14;99774.56;106726;1238;138982;-77
2022/11/22 00:39:53;;;;;;;69.80;24.50;;;;;;;-1.54;84.23;99772.10;106763;1238;97632;-77
2022/11/22 00:42:19;;;;;;;61.10;23.80;;;;;;;-1.55;84.05;99765.28;106882;1237;98736;-77
2022/11/22 00:44:44;;;;;;;59.40;23.50;;;;;;;-1.55;84.15;99764.58;106744;1243;139090;-77
2022/11/22 00:47:09;;;;;;;57.70;24.30;;;;;;;-1.55;84.14;99754.60;106944;1243;97743;-77
2022/11/22 00:49:34;;;;;;;59.90;23.60;;;;;;;-1.53;84.31;99751.60;106750;1239;138642;-76
2022/11/22 00:52:00;;;;;;;68.60;24.60;;;;;;;-1.49;84.31;99756.47;106846;1248;98999;-77
2022/11/22 00:54:25;;;;;;;64.10;25.00;;;;;;;-1.45;84.27;99753.80;106869;1238;97350;-77
2022/11/22 00:56:50;;;;;;;66.30;26.00;;;;;;;-1.45;84.34;99747.84;106740;1233;138861;-76
2022/11/22 00:59:15;;;;;;;69.00;25.10;;;;;;;-1.42;84.26;99740.80;106956;1251;97669;-77
2022/11/22 01:01:41;;;;;;;68.40;26.30;;;;;;;-1.41;84.05;99736.94;106681;1243;139047;-77
2022/11/22 01:04:06;;;;;;;63.60;24.10;;;;;;;-1.42;84.26;99737.14;106881;1242;97723;-77
2022/11/22 01:06:32;;;;;;;65.70;24.10;;;;;;;-1.41;84.16;99737.13;106849;1235;97720;-76
2022/11/22 01:08:57;;;;;;;74.10;25.20;;;;;;;-1.38;84.37;99733.59;106706;1243;138669;-77
2022/11/22 01:11:22;;;;;;;61.00;22.80;;;;;;;-1.39;84.12;99739.38;106879;1236;97645;-77
2022/11/22 01:13:48;;;;;;;59.80;23.90;;;;;;;-1.41;84.21;99733.44;106705;1237;138876;-77
2022/11/22 01:16:13;;;;;;;68.50;24.10;;;;;;;-1.41;84.18;99732.92;106916;1235;97716;-77
2022/11/22 01:18:40;;;;;;;65.20;25.10;;;;;;;-1.43;84.03;99737.49;106724;1237;138952;-77
2022/11/22 01:21:05;;;;;;;74.20;26.40;;;;;;;-1.44;84.17;99732.77;106841;1243;97744;-77
2022/11/22 01:23:32;;;;;;;75.20;28.80;;;;;;;-1.43;84.23;99723.83;106940;1246;96575;-76
2022/11/22 01:25:57;;;;;;;77.30;26.60;;;;;;;-1.40;84.48;99718.71;106746;1250;140340;-76
2022/11/22 01:28:22;;;;;;;66.80;24.20;;;;;;;-1.38;84.18;99716.77;106857;1237;97748;-76
2022/11/22 01:30:52;;;;;;;66.90;23.90;;;;;;;-1.39;84.25;99720.11;106737;1233;139404;-76
2022/11/22 01:33:18;;;;;;;69.70;25.80;;;;;;;-1.38;84.30;99715.02;106835;1235;111736;-75
2022/11/22 01:35:43;;;;;;;62.40;24.20;;;;;;;-1.35;84.27;99714.45;106852;1251;98227;-76
2022/11/22 01:38:08;;;;;;;64.50;22.50;;;;;;;-1.33;84.20;99714.96;106810;1251;138874;-76
2022/11/22 01:40:34;;;;;;;57.10;20.20;;;;;;;-1.32;84.18;99717.05;106902;1246;97723;-77
2022/11/22 01:43:00;;;;;;;54.40;20.60;;;;;;;-1.32;84.17;99727.92;106692;1246;138665;-76
2022/11/22 01:45:28;;;;;;;55.80;22.20;;;;;;;-1.32;84.21;99733.17;106936;1253;97688;-77
2022/11/22 01:48:04;;;;;;;55.90;20.60;;;;;;;-1.32;84.32;99741.59;106811;1245;97226;-77
2022/11/22 01:50:34;;;;;;;60.50;21.80;;;;;;;-1.32;84.27;99747.02;106838;1243;138498;-76
2022/11/22 01:53:05;;;;;;;58.40;20.00;;;;;;;-1.33;84.27;99743.35;106970;1251;111694;-76
2022/11/22 01:55:30;;;;;;;;;;;;;;;-1.33;84.11;99735.81;106770;1247;139859;-76
2022/11/22 01:57:56;;;;;;;60.20;19.00;;;;;;;-1.33;84.24;99730.38;106876;1235;97799;-76
2022/11/22 02:00:22;;;;;;;61.40;21.20;;;;;;;-1.33;84.37;99725.65;106975;1231;98403;-76
2022/11/22 02:02:52;;;;;;;54.70;19.70;;;;;;;-1.27;84.48;99726.13;106778;1228;138415;-77
2022/11/22 02:05:21;;;;;;;55.90;21.00;;;;;;;-1.25;84.24;99719.08;106933;1251;98202;-77
2022/11/22 02:07:52;;;;;;;57.20;19.30;;;;;;;-1.24;84.31;99701.73;106802;1235;139751;-77
2022/11/22 02:10:21;;;;;;;59.60;23.10;;;;;;;-1.20;84.30;99699.75;106968;1235;98320;-76
2022/11/22 02:12:47;;;;;;;60.60;22.00;;;;;;;-1.18;84.43;99698.15;106887;1237;139064;-76
2022/11/22 02:15:13;;;;;;;59.50;21.70;;;;;;;-1.16;84.28;99702.70;106931;1250;99891;-77
2022/11/22 02:17:39;;;;;;;58.90;22.10;;;;;;;-1.18;84.36;99702.36;106924;1245;97734;-76
2022/11/22 02:20:06;;;;;;;58.20;21.70;;;;;;;-1.17;84.36;99700.08;106854;1227;139287;-76
2022/11/22 02:22:56;;;;;;;64.00;23.40;;;;;;;-1.15;84.32;99695.31;106994;1231;97901;-77
2022/11/22 02:25:40;;;;;;;66.50;23.10;;;;;;;-1.12;84.28;99699.14;106764;1251;138627;-77
2022/11/22 02:28:07;;;;;;;61.20;23.00;;;;;;;-1.10;84.22;99705.42;106735;1245;99978;-75
2022/11/22 02:30:33;;;;;;;71.50;26.00;;;;;;;-1.09;84.37;99718.73;106716;1238;106786;-76
2022/11/22 02:32:58;;;;;;;74.90;25.70;;;;;;;-1.08;84.28;99723.29;106556;1235;138867;-75
2022/11/22 02:35:25;;;;;;;85.00;26.00;;;;;;;-1.08;84.26;99719.95;106855;1243;97634;-76
2022/11/22 02:38:01;;;;;;;83.20;27.00;;;;;;;-1.06;84.34;99720.09;106626;1254;138827;-76
2022/11/22 02:40:33;;;;;;;75.40;24.20;;;;;;;-1.03;84.24;99712.54;106957;1237;105965;-76
2022/11/22 02:43:01;;;;;;;87.10;27.00;;;;;;;-1.04;84.25;99715.69;106654;1237;139222;-76
2022/11/22 02:45:27;;;;;;;81.90;26.00;;;;;;;-1.03;84.29;99713.58;106995;1236;97583;-76
2022/11/22 02:47:52;;;;;;;74.90;25.80;;;;;;;-1.03;84.18;99717.79;106730;1243;97710;-76
2022/11/22 02:50:18;;;;;;;75.60;24.60;;;;;;;-1.04;84.18;99710.27;106768;1233;138819;-75
2022/11/22 02:52:43;;;;;;;82.00;26.70;;;;;;;-1.03;84.10;99704.29;106864;1236;97694;-76
2022/11/22 02:55:08;;;;;;;75.90;27.40;;;;;;;-1.02;84.19;99695.87;106879;1247;140457;-75
2022/11/22 02:57:33;;;;;;;77.30;26.40;;;;;;;-1.01;84.32;99689.71;106894;1232;99133;-76
2022/11/22 02:59:59;;;;;;;72.40;24.10;;;;;;;-1.01;84.01;99691.99;106860;1251;97718;-77
2022/11/22 03:02:24;;;;;;;79.90;27.40;;;;;;;-1.00;84.26;99693.73;106853;1245;138376;-77
2022/11/22 03:04:49;;;;;;;84.20;27.50;;;;;;;-1.01;84.31;99691.82;106834;1227;99277;-77
2022/11/22 03:07:16;;;;;;;85.90;27.20;;;;;;;-0.99;84.19;99691.27;106860;1244;140558;-77
2022/11/22 03:09:41;;;;;;;73.60;27.40;;;;;;;-0.97;84.18;99691.78;106669;1236;98998;-76
2022/11/22 03:12:07;;;;;;;78.00;24.60;;;;;;;-0.94;84.13;99688.59;106829;1253;97661;-77
2022/11/22 03:14:32;;;;;;;80.90;27.40;;;;;;;-0.96;84.07;99688.96;106717;1228;138386;-77
2022/11/22 03:16:58;;;;;;;86.00;25.30;;;;;;;-0.97;84.13;99692.48;106736;1237;97882;-77
2022/11/22 03:19:24;;;;;;;81.10;26.00;;;;;;;-0.97;83.92;99694.40;106635;1238;138947;-77
2022/11/22 03:21:49;;;;;;;76.90;25.80;;;;;;;-0.98;84.07;99697.21;106660;1235;99304;-77
2022/11/22 03:24:15;;;;;;;83.00;27.90;;;;;;;-1.00;83.92;99695.67;106776;1237;97826;-77
2022/11/22 03:26:40;;;;;;;82.20;27.30;;;;;;;-1.00;84.09;99692.16;106654;1231;140105;-77
2022/11/22 03:29:05;;;;;;;77.50;25.60;;;;;;;-0.99;83.98;99685.12;106655;1230;97784;-77
2022/11/22 03:31:31;;;;;;;85.60;26.90;;;;;;;-0.96;84.09;99684.05;106625;1237;138967;-76
2022/11/22 03:33:56;;;;;;;84.60;26.10;;;;;;;-0.96;84.18;99679.48;106679;1231;98027;-77
2022/11/22 03:36:22;;;;;;;82.50;28.00;;;;;;;-0.97;84.18;99673.20;106680;1230;97687;-77
2022/11/22 03:38:47;;;;;;;86.30;30.00;;;;;;;-0.96;84.01;99670.89;106640;1252;139313;-77
2022/11/22 03:41:13;;;;;;;84.20;28.30;;;;;;;-0.95;84.05;99671.92;106777;1237;98171;-77
2022/11/22 03:43:38;;;;;;;80.00;27.60;;;;;;;-0.96;84.01;99672.13;106631;1231;139967;-76
2022/11/22 03:46:03;;;;;;;82.00;27.20;;;;;;;-0.95;84.13;99668.08;106951;1245;97699;-76
2022/11/22 03:48:29;;;;;;;86.80;28.70;;;;;;;-0.95;84.09;99671.77;106811;1235;98090;-77
2022/11/22 03:51:02;;;;;;;83.30;29.10;;;;;;;-0.95;83.95;99675.09;106757;1244;140480;-77
2022/11/22 03:53:28;;;;;;;82.50;28.70;;;;;;;-0.99;83.82;99675.66;106900;1251;107153;-77
2022/11/22 03:55:53;;;;;;;88.10;29.50;;;;;;;-1.00;83.81;99680.41;106619;1243;138354;-77
2022/11/22 03:58:18;;;;;;;79.10;27.80;;;;;;;-1.00;83.89;99680.05;106799;1252;97866;-77
2022/11/22 04:00:43;;;;;;;79.90;30.20;;;;;;;-1.02;83.79;99679.73;106598;1251;138673;-76
2022/11/22 04:03:09;;;;;;;83.60;28.50;;;;;;;-1.03;83.98;99675.71;106750;1244;97703;-76
2022/11/22 04:05:34;;;;;;;92.40;32.50;;;;;;;-1.02;83.83;99672.72;106692;1239;97746;-77
2022/11/22 04:07:59;;;;;;;90.30;31.50;;;;;;;-1.01;83.87;99666.04;106693;1229;138320;-77
2022/11/22 04:10:25;;;;;;;101.10;32.20;;;;;;;-1.00;83.71;99671.46;106755;1253;109148;-77
2022/11/22 04:12:51;;;;;;;92.30;30.50;;;;;;;-0.99;83.87;99672.67;106544;1238;138842;-75
2022/11/22 04:15:16;;;;;;;81.30;28.70;;;;;;;-0.98;83.87;99674.26;106883;1253;97716;-77
2022/11/22 04:17:44;;;;;;;90.30;31.30;;;;;;;-1.02;83.66;99667.98;106738;1235;97749;-77
2022/11/22 04:23:04;;;;;;;97.30;30.50;;;;;;;-1.03;83.69;99670.80;106695;1237;97670;-76
2022/11/22 04:25:32;;;;;;;100.10;34.30;;;;;;;-1.05;83.64;99670.14;106797;1251;139681;-77
2022/11/22 04:27:57;;;;;;;102.70;36.00;;;;;;;-1.05;83.79;99673.98;106722;1236;112404;-76
2022/11/22 04:32:44;;;;;;;92.30;31.40;;;;;;;-1.05;83.74;99674.15;106745;1237;97719;-76
2022/11/22 04:33:10;;;;;;;85.60;28.80;;;;;;;-1.03;83.79;99671.51;106759;1239;106996;-76
2022/11/22 04:35:37;;;;;;;80.50;27.30;;;;;;;-1.04;83.73;99666.27;106754;1235;97676;-76
2022/11/22 04:38:03;;;;;;;93.00;31.00;;;;;;;-1.04;83.66;99672.74;106746;1236;140048;-76
2022/11/22 04:40:28;;;;;;;85.10;27.00;;;;;;;-1.05;83.62;99677.84;106730;1239;97720;-76
2022/11/22 04:45:37;;;;;;;73.00;25.80;;;;;;;-1.09;83.72;99687.52;106901;1251;97690;-76
2022/11/22 04:48:06;;;;;;;83.40;26.30;;;;;;;-1.12;83.39;99684.41;106873;1235;97600;-77
2022/11/22 04:53:17;;;;;;;80.60;27.00;;;;;;;-1.10;83.48;99686.66;106874;1241;100667;-76
2022/11/22 04:55:44;;;;;;;83.90;25.70;;;;;;;-1.09;83.72;99683.51;106851;1251;139123;-76
2022/11/22 04:58:10;;;;;;;76.90;26.60;;;;;;;-1.09;83.54;99685.60;106831;1238;97731;-76
2022/11/22 05:00:35;;;;;;;81.70;25.40;;;;;;;-1.08;83.58;99684.89;106858;1233;97616;-76
2022/11/22 05:03:01;;;;;;;83.60;26.60;;;;;;;-1.08;83.49;99689.27;106807;1244;139373;-77
2022/11/22 05:05:27;;;;;;;85.30;27.00;;;;;;;-1.09;83.57;99702.96;106837;1243;97645;-77
2022/11/22 05:07:53;;;;;;;80.30;24.90;;;;;;;-1.09;83.56;99707.52;106784;1244;138399;-78
2022/11/22 05:10:19;;;;;;;76.30;24.40;;;;;;;-1.08;83.43;99704.35;106983;1238;97677;-77
2022/11/22 05:12:44;;;;;;;74.00;23.80;;;;;;;-1.09;83.44;99706.81;106803;1244;139649;-76
2022/11/22 05:15:10;;;;;;;83.00;26.60;;;;;;;-1.09;83.61;99708.92;106869;1244;97621;-77
2022/11/22 05:17:37;;;;;;;76.50;24.80;;;;;;;-1.08;83.36;99707.51;107079;1243;97868;-78
2022/11/22 05:20:09;;;;;;;75.00;25.40;;;;;;;-1.11;83.28;99705.42;106846;1239;138454;-77
2022/11/22 05:25:20;;;;;;;79.10;26.00;;;;;;;-1.16;83.46;99692.35;106817;1237;138405;-77
2022/11/22 05:27:45;;;;;;;83.60;25.30;;;;;;;-1.19;83.32;99694.48;106715;1246;98919;-77
2022/11/22 05:30:11;;;;;;;88.60;28.20;;;;;;;-1.19;83.23;99689.57;106977;1248;97626;-65
2022/11/22 05:32:37;;;;;;;83.80;27.50;;;;;;;-1.19;83.26;99686.95;107215;1247;138996;-65
2022/11/22 05:35:03;;;;;;;87.00;27.90;;;;;;;-1.16;83.39;99690.77;107473;1244;97615;-65
2022/11/22 05:37:33;;;;;;;86.40;26.90;;;;;;;-1.17;83.43;99687.45;107415;1254;138729;-69
2022/11/22 05:39:59;;;;;;;95.40;29.00;;;;;;;-1.21;83.23;99682.76;107282;1245;112103;-68
2022/11/22 05:42:24;;;;;;;86.00;27.10;;;;;;;-1.22;83.27;99683.11;107328;1250;97806;-68
2022/11/22 05:44:49;;;;;;;93.40;27.70;;;;;;;-1.23;83.41;99680.50;107210;1246;140306;-68
2022/11/22 05:47:14;;;;;;;92.60;26.80;;;;;;;-1.20;83.40;99680.47;107340;1239;97729;-68
2022/11/22 05:49:40;;;;;;;88.30;26.90;;;;;;;-1.20;83.19;99683.10;107313;1244;138856;-68
2022/11/22 05:52:05;;;;;;;86.30;27.80;;;;;;;-1.20;83.42;99686.27;107417;1250;97715;-68
2022/11/22 05:54:30;;;;;;;99.10;28.50;;;;;;;-1.18;83.28;99687.45;107524;1244;98494;-69
2022/11/22 05:56:55;;;;;;;78.10;24.80;;;;;;;-1.17;83.29;99681.14;107320;1235;139016;-68
2022/11/22 05:59:21;;;;;;;88.00;28.10;;;;;;;-1.16;83.37;99680.77;107464;1243;97744;-68
2022/11/22 06:01:46;;;;;;;88.60;28.10;;;;;;;-1.17;83.18;99683.08;107382;1244;140092;-69
2022/11/22 06:04:12;;;;;;;83.60;27.50;;;;;;;-1.17;83.34;99688.67;107513;1251;97660;-69
2022/11/22 06:06:37;;;;;;;92.20;29.80;;;;;;;-1.18;83.13;99689.73;107529;1243;97623;-68
2022/11/22 06:09:03;;;;;;;90.50;27.80;;;;;;;-1.17;83.17;99689.55;107310;1251;138355;-68
2022/11/22 06:11:29;;;;;;;85.20;28.60;;;;;;;-1.17;83.24;99690.06;107453;1251;97664;-68
2022/11/22 06:14:02;;;;;;;90.60;29.00;;;;;;;-1.17;83.40;99678.86;107340;1244;138372;-70
2022/11/22 06:16:27;;;;;;;92.00;27.90;;;;;;;-1.15;83.32;99680.95;107416;1244;98458;-68
2022/11/22 06:18:53;;;;;;;93.40;28.60;;;;;;;-1.15;83.17;99681.83;107266;1243;140043;-69
2022/11/22 06:21:24;;;;;;;81.00;27.30;;;;;;;-1.15;83.34;99689.70;107476;1251;97643;-69
2022/11/22 06:23:53;;;;;;;;;;;;;;;-1.15;83.29;99686.38;107453;1235;109531;-68
2022/11/22 06:26:19;;;;;;;87.30;29.30;;;;;;;-1.19;83.06;99689.56;107376;1243;125236;-69
2022/11/22 06:28:47;;;;;;;94.80;30.30;;;;;;;-1.19;83.30;99685.89;107426;1237;97656;-69
2022/11/22 06:31:20;;;;;;;93.10;28.30;;;;;;;-1.18;83.33;99696.05;107352;1232;138538;-69
2022/11/22 06:33:46;;;;;;;84.70;27.00;;;;;;;-1.19;83.05;99694.48;107499;1243;97606;-69
2022/11/22 06:36:15;;;;;;;79.60;25.50;;;;;;;-1.21;83.24;99702.75;107421;1245;97694;-69
2022/11/22 06:38:42;;;;;;;86.50;27.80;;;;;;;-1.22;83.25;99712.73;107331;1244;138694;-68
2022/11/22 06:41:30;;;;;;;97.30;30.90;;;;;;;-1.22;83.04;99717.13;107440;1237;96537;-69
2022/11/22 06:43:56;;;;;;;70.10;23.90;;;;;;;-1.21;83.24;99712.56;107247;1243;139065;-69
2022/11/22 06:46:24;;;;;;;89.30;30.80;;;;;;;-1.20;83.24;99710.62;107367;1253;97555;-69
2022/11/22 06:48:49;;;;;;;88.80;26.90;;;;;;;-1.19;83.08;99721.13;107236;1245;138833;-69
2022/11/22 06:51:17;;;;;;;90.00;27.80;;;;;;;-1.18;83.16;99723.74;107465;1235;98012;-69
2022/11/22 06:53:44;;;;;;;101.20;29.70;;;;;;;-1.18;83.05;99722.69;107436;1244;97616;-69
2022/11/22 06:56:12;;;;;;;94.40;31.30;;;;;;;-1.19;83.09;99732.52;107629;1250;140622;-69
2022/11/22 06:58:37;;;;;;;89.80;28.60;;;;;;;-1.18;83.10;99737.41;107428;1237;111065;-68
2022/11/22 07:01:11;;;;;;;83.50;27.90;;;;;;;-1.17;83.11;99740.91;107238;1243;139150;-69
2022/11/22 07:03:38;;;;;;;88.50;28.20;;;;;;;-1.16;83.19;99743.17;107367;1238;108220;-68
2022/11/22 07:06:04;;;;;;;97.00;30.30;;;;;;;-1.14;83.23;99748.23;107364;1251;97786;-68
2022/11/22 07:08:30;;;;;;;86.90;30.20;;;;;;;-1.12;82.98;99752.95;107452;1236;139186;-68
2022/11/22 07:11:01;;;;;;;85.70;28.20;;;;;;;-1.12;83.03;99751.54;107493;1235;96604;-69
2022/11/22 07:13:27;;;;;;;;;;;;;;;-1.14;82.97;99751.40;107277;1243;138749;-69
2022/11/22 07:15:56;;;;;;;97.50;29.90;;;;;;;-1.20;82.85;99750.40;107197;1252;97687;-69
2022/11/22 07:18:23;;;;;;;103.70;31.40;;;;;;;-1.18;83.10;99749.52;107224;1237;97613;-69
2022/11/22 07:20:48;;;;;;;98.70;31.80;;;;;;;-1.20;82.74;99746.38;107114;1245;139166;-69
2022/11/22 07:23:14;;;;;;;110.30;35.00;;;;;;;-1.20;83.00;99757.42;107363;1252;97629;-69
2022/11/22 07:25:47;;;;;;;93.30;31.30;;;;;;;-1.19;83.14;99755.30;107133;1237;138714;-69
2022/11/22 07:28:14;;;;;;;90.60;30.10;;;;;;;-1.16;82.89;99753.35;107338;1229;96555;-68
2022/11/22 07:30:41;;;;;;;109.00;34.20;;;;;;;-1.16;82.94;99751.23;107270;1230;97642;-69
2022/11/22 07:33:07;;;;;;;99.90;33.00;;;;;;;-1.15;83.05;99746.85;107445;1244;98946;-69
2022/11/22 07:35:33;;;;;;;103.30;34.10;;;;;;;-1.13;82.97;99737.01;107419;1235;97710;-68
2022/11/22 07:37:59;;;;;;;99.70;31.30;;;;;;;-1.11;83.03;99740.14;108094;1250;138957;-68
2022/11/22 07:40:25;;;;;;;105.30;33.80;;;;;;;-1.11;82.77;99745.40;107149;1240;97651;-68
2022/11/22 07:42:50;;;;;;;104.70;34.60;;;;;;;-1.13;82.90;99748.77;107108;1246;138882;-68
2022/11/22 07:45:15;;;;;;;118.60;37.10;;;;;;;-1.12;83.02;99745.59;107136;1247;97806;-65
2022/11/22 07:47:41;;;;;;;92.10;30.10;;;;;;;-1.12;83.09;99743.31;107177;1244;97653;-65
2022/11/22 07:50:06;;;;;;;103.00;34.50;;;;;;;-1.13;83.13;99745.25;107220;1240;138517;-65
2022/11/22 07:52:35;;;;;;;111.00;34.40;;;;;;;-1.13;82.84;99746.65;107250;1236;108742;-66
2022/11/22 07:55:01;;;;;;;91.90;33.60;;;;;;;-1.12;82.92;99742.95;107150;1238;139074;-66
2022/11/22 07:57:26;;;;;;;89.30;30.80;;;;;;;-1.14;83.12;99736.50;107440;1244;98111;-66
2022/11/22 07:59:51;;;;;;;80.60;31.40;;;;;;;-1.14;83.02;99734.23;107381;1235;97733;-65
2022/11/22 08:02:17;;;;;;;79.80;27.40;;;;;;;-1.12;82.89;99729.29;107207;1244;138311;-64
2022/11/22 08:04:43;;;;;;;86.10;29.50;;;;;;;-1.10;83.05;99727.86;106907;1244;97687;-64
2022/11/22 08:07:08;;;;;;;78.40;29.30;;;;;;;-1.07;83.11;99733.44;106812;1227;139283;-64
2022/11/22 08:09:34;;;;;;;87.90;29.10;;;;;;;-1.02;83.12;99730.40;107309;1242;97621;-64
2022/11/22 08:11:59;;;;;;;79.10;26.30;;;;;;;-1.00;83.27;99727.58;107358;1235;97769;-65
2022/11/22 08:14:25;;;;;;;70.50;24.20;;;;;;;-1.00;83.15;99729.67;106935;1232;139783;-64
2022/11/22 08:16:50;;;;;;;68.40;21.60;;;;;;;-1.05;83.10;99732.36;107318;1248;97691;-65
2022/11/22 08:19:16;;;;;;;70.60;25.20;;;;;;;-1.08;83.09;99740.64;107297;1250;140585;-65
2022/11/22 08:21:46;;;;;;;72.50;23.80;;;;;;;-1.04;83.31;99743.92;107314;1243;99448;-64
2022/11/22 08:24:12;;;;;;;69.00;24.60;;;;;;;-0.99;83.28;99738.95;107468;1235;97683;-65
2022/11/22 08:26:37;;;;;;;60.90;22.20;;;;;;;-0.94;83.37;99735.76;107240;1238;140655;-65
2022/11/22 08:29:08;;;;;;;63.90;22.00;;;;;;;-0.89;83.42;99739.02;107138;1235;97794;-65
2022/11/22 08:31:33;;;;;;;61.60;22.10;;;;;;;-0.85;83.53;99738.45;106957;1235;139119;-65
2022/11/22 08:33:59;;;;;;;72.40;24.90;;;;;;;-0.86;83.30;99744.07;107422;1240;97631;-65
2022/11/22 08:36:25;;;;;;;60.90;22.50;;;;;;;-0.84;83.24;99744.75;107468;1244;97664;-66
2022/11/22 08:38:50;;;;;;;58.30;23.80;;;;;;;-0.81;83.47;99746.65;107241;1243;139467;-64
2022/11/22 08:41:16;;;;;;;74.30;24.70;;;;;;;-0.79;83.49;99748.56;107366;1257;96438;-65
2022/11/22 08:43:41;;;;;;;78.60;23.80;;;;;;;-0.74;83.41;99753.40;107312;1235;138164;-65
2022/11/22 08:46:06;;;;;;;64.70;22.40;;;;;;;-0.73;83.41;99752.16;107317;1243;97643;-65
2022/11/22 08:48:34;;;;;;;71.10;21.80;;;;;;;-0.75;83.19;99749.02;106964;1236;97748;-65
2022/11/22 08:51:02;;;;;;;67.10;25.40;;;;;;;-0.72;83.52;99747.77;107256;1235;138156;-66
2022/11/22 08:53:28;;;;;;;66.50;23.00;;;;;;;-0.68;83.52;99750.52;107387;1227;111938;-66
2022/11/22 08:55:54;;;;;;;72.30;23.80;;;;;;;-0.64;83.53;99747.33;107426;1244;97581;-65
2022/11/22 08:58:21;;;;;;;66.10;24.00;;;;;;;-0.60;83.43;99746.57;107459;1227;97671;-65
2022/11/22 09:00:47;;;;;;;75.20;25.40;;;;;;;-0.59;83.55;99745.85;107259;1250;138540;-65
2022/11/22 09:03:12;;;;;;;69.50;26.60;;;;;;;-0.55;83.67;99743.69;107365;1244;97637;-66
2022/11/22 09:05:37;;;;;;;70.90;23.60;;;;;;;-0.48;83.86;99742.72;107409;1235;97710;-66
2022/11/22 09:08:03;;;;;;;75.90;24.50;;;;;;;-0.46;83.69;99738.48;107304;1227;97709;-65
2022/11/22 09:10:28;;;;;;;72.50;24.90;;;;;;;-0.44;83.57;99743.20;107441;1241;97569;-67
2022/11/22 09:12:54;;;;;;;72.30;24.00;;;;;;;-0.42;83.72;99746.33;106944;1236;99641;-65
2022/11/22 09:15:20;;;;;;;74.30;26.10;;;;;;;-0.39;83.82;99749.09;107214;1237;98194;-67
2022/11/22 09:17:45;;;;;;;70.00;25.00;;;;;;;-0.32;83.88;99746.72;107397;1243;97985;-65
2022/11/22 09:20:11;;;;;;;75.20;25.30;;;;;;;-0.30;83.83;99737.05;107282;1230;139755;-66
2022/11/22 09:22:37;;;;;;;67.70;24.50;;;;;;;-0.28;83.85;99727.54;107335;1237;97938;-66
2022/11/22 09:25:04;;;;;;;72.00;24.00;;;;;;;-0.26;83.80;99724.87;107255;1235;138632;-65
2022/11/22 09:27:31;;;;;;;76.80;24.40;;;;;;;-0.23;83.90;99722.90;107217;1231;98327;-65
2022/11/22 09:29:56;;;;;;;66.20;24.60;;;;;;;-0.19;83.94;99712.65;107220;1233;97610;-65
2022/11/22 09:32:21;;;;;;;76.80;25.50;;;;;;;-0.13;84.06;99711.34;107192;1235;138579;-66
2022/11/22 09:34:47;;;;;;;81.50;26.60;;;;;;;-0.11;83.94;99704.63;107368;1235;97618;-66
2022/11/22 09:37:17;;;;;;;69.80;23.50;;;;;;;-0.09;83.98;99701.96;107372;1237;97534;-66
2022/11/22 09:39:43;;;;;;;71.00;24.30;;;;;;;-0.09;83.88;99701.09;107360;1227;111883;-66
2022/11/22 09:42:29;;;;;;;60.20;21.30;;;;;;;-0.11;83.86;99700.06;107377;1235;96472;-66
2022/11/22 09:45:15;;;;;;;77.30;23.90;;;;;;;-0.13;83.95;99695.89;107342;1244;138582;-66
2022/11/22 09:48:09;;;;;;;71.50;23.90;;;;;;;-0.14;84.12;99693.61;107478;1235;97642;-65
2022/11/22 09:50:53;;;;;;;64.00;23.70;;;;;;;-0.10;84.05;99686.19;107364;1241;138286;-65
2022/11/22 09:53:35;;;;;;;69.50;24.50;;;;;;;-0.05;84.00;99679.96;107495;1230;110213;-66
2022/11/22 09:56:06;;;;;;;68.40;25.50;;;;;;;-0.00;84.10;99679.86;107246;1235;138378;-65
2022/11/22 09:58:38;;;;;;;66.40;24.40;;;;;;;0.05;84.15;99683.81;107589;1227;107534;-66
2022/11/22 10:01:11;;;;;;;69.90;25.40;;;;;;;0.02;83.88;99683.67;107305;1237;138737;-65
2022/11/22 10:03:47;;;;;;;76.40;26.80;;;;;;;0.03;84.13;99687.01;107470;1235;97669;-69
2022/11/22 10:06:27;;;;;;;76.80;26.50;;;;;;;0.09;84.24;99689.53;107393;1236;111056;-65
2022/11/22 10:09:38;;;;;;;71.80;26.30;;;;;;;0.18;84.28;99687.11;107253;1237;139783;-65
2022/11/22 10:12:33;;;;;;;79.80;26.30;;;;;;;0.28;84.42;99680.08;107408;1236;106431;-64
2022/11/22 10:15:06;;;;;;;80.60;26.50;;;;;;;0.34;84.38;99675.58;107335;1235;138296;-65
2022/11/22 10:18:00;;;;;;;70.90;23.00;;;;;;;0.35;84.21;99677.49;107434;1244;97599;-66
2022/11/22 10:20:28;;;;;;;65.10;23.70;;;;;;;0.34;84.20;99680.51;107349;1248;139033;-65
2022/11/22 10:22:55;;;;;;;69.80;24.20;;;;;;;0.36;84.27;99676.61;107400;1230;99670;-65
2022/11/22 10:25:37;;;;;;;77.00;26.10;;;;;;;0.35;84.35;99673.09;107504;1241;97785;-66
2022/11/22 10:28:16;;;;;;;75.30;26.30;;;;;;;0.36;84.37;99677.48;107510;1237;96522;-65
2022/11/22 10:30:52;;;;;;;65.40;24.00;;;;;;;0.43;84.51;99678.76;107273;1227;140726;-65
2022/11/22 10:33:24;;;;;;;66.60;23.30;;;;;;;0.49;84.66;99675.48;107416;1243;111714;-65
2022/11/22 10:36:02;;;;;;;67.30;22.90;;;;;;;0.52;84.59;99671.05;107506;1244;99364;-66
2022/11/22 10:38:40;;;;;;;67.90;22.70;;;;;;;0.52;84.52;99672.63;107434;1237;107377;-66
2022/11/22 10:41:20;;;;;;;57.40;21.50;;;;;;;0.52;84.60;99667.87;107394;1237;97628;-65
2022/11/22 10:44:24;;;;;;;62.90;23.00;;;;;;;0.55;84.53;99667.98;107293;1230;139253;-65
2022/11/22 10:47:07;;;;;;;60.10;19.40;;;;;;;0.57;84.69;99664.09;107348;1237;110924;-65
2022/11/22 10:49:44;;;;;;;55.70;19.70;;;;;;;0.57;84.61;99660.92;107327;1236;138539;-65
2022/11/22 10:52:22;;;;;;;57.50;20.10;;;;;;;0.56;84.42;99653.75;107447;1243;108276;-65
2022/11/22 10:55:21;;;;;;;59.40;18.30;;;;;;;0.57;84.74;99649.67;107343;1250;97692;-67
2022/11/22 10:58:12;;;;;;;60.80;19.90;;;;;;;0.58;84.62;99642.27;107374;1227;97602;-66
2022/11/22 11:00:46;;;;;;;56.40;18.40;;;;;;;0.56;84.49;99649.15;107352;1244;111604;-66
2022/11/22 11:03:24;;;;;;;62.50;19.60;;;;;;;0.62;84.85;99652.92;107383;1235;99431;-66
2022/11/22 11:06:08;;;;;;;59.50;19.00;;;;;;;0.65;84.84;99654.09;107270;1238;107090;-66
2022/11/22 11:08:41;;;;;;;59.50;20.80;;;;;;;0.66;84.80;99655.84;107195;1246;138988;-65
2022/11/22 11:11:07;;;;;;;64.40;20.00;;;;;;;0.67;84.79;99657.94;107275;1236;99235;-66
2022/11/22 11:13:43;;;;;;;54.50;19.60;;;;;;;0.65;84.80;99658.13;107201;1231;138093;-66
2022/11/22 11:16:12;;;;;;;62.90;19.90;;;;;;;0.65;84.86;99662.52;107228;1243;99346;-66
2022/11/22 11:18:53;;;;;;;60.30;19.60;;;;;;;0.69;84.91;99663.52;107288;1230;108632;-65
2022/11/22 11:21:19;;;;;;;62.50;19.70;;;;;;;0.72;84.94;99660.48;107300;1237;97668;-65
2022/11/22 11:23:44;;;;;;;54.10;19.20;;;;;;;0.71;84.91;99654.51;107321;1237;97686;-66